• Join FlightAware (Why Join?)
  • Login
  • US Flag 
05:03AM EDT


 

Airport Tracker/Info


-or-


 

Live Flight TrackerFlight Track Log ✈ USC110 ✈ 27-Jul-2013 ✈ KPWK - KSUS

Flight Track Log - Related Links

Times and Time Zones

All times are in EDT time to prevent confusion due to time zone crossing. See the USC110 flight status page for this flight to view local times or setup timezone preferences in your user account.

Time Position Orientation Groundspeed Altitude Reporting Facility
EDT Latitude Longitude Course Direction KTS MPH feet Rate Location/Type
07:09PM 42.1500 -87.9167 191° South 104 120 1,900  Level Chicago TRACON
07:10PM 42.1667 -87.9333 323° Northwest 117 135 2,900 720 Climbing Chicago TRACON
07:11PM 42.1667 -87.9558 270° West 126 145 3,000 60 Climbing Chicago Center
07:12PM 42.1656 -88.0083 268° West 141 162 3,000  Level Chicago Center
07:13PM 42.1667 -88.0758 271° West 146 168 3,000  Level Chicago Center
07:14PM 42.1444 -88.1217 237° Southwest 157 181 3,000  Level Chicago Center
07:15PM 41.8935 -88.0878 191° South  Level Estimated
07:15PM 42.1086 -88.1572 216° Southwest 161 185 3,000  Level Chicago Center
07:16PM 42.0731 -88.1944 218° Southwest 162 186 3,000  Level Chicago Center
07:17PM 42.0369 -88.2306 217° Southwest 163 188 3,000 120 Level Chicago Center
07:18PM 41.9942 -88.2747 218° Southwest 163 188 3,300 420 Climbing Chicago Center
07:19PM 41.9544 -88.2767 182° South 159 183 3,900 300 Climbing Chicago Center
07:20PM 41.9078 -88.2728 176° South 164 189 4,000  Climbing Chicago Center
07:21PM 41.8636 -88.2867 193° South 179 206 4,000  Level Chicago Center
07:22PM 41.8239 -88.3153 208° Southwest 169 194 4,000  Level Chicago Center
07:23PM 41.7856 -88.3483 213° Southwest 165 190 4,000  Level Chicago Center
07:24PM 41.7386 -88.3853 210° Southwest 165 190 4,000  Level Chicago Center
07:25PM 41.6989 -88.4156 210° Southwest 165 190 4,000  Level Chicago Center
07:26PM 41.6592 -88.4469 211° Southwest 166 191 4,000  Level Chicago Center
07:27PM 41.6189 -88.4772 209° Southwest 167 192 4,000  Level Chicago Center
07:28PM 41.5794 -88.5083 211° Southwest 167 192 4,000  Level Chicago Center
07:29PM 41.5311 -88.5444 209° Southwest 167 192 4,000  Level Chicago Center
07:30PM 41.4911 -88.5761 211° Southwest 168 193 4,000 300 Level Chicago Center
07:31PM 41.4536 -88.6036 209° Southwest 160 184 4,700 540 Climbing Chicago Center
07:32PM 41.4189 -88.6314 211° Southwest 150 173 5,200 540 Climbing Chicago Center
07:33PM 41.3836 -88.6586 210° Southwest 149 171 5,900 720 Climbing Chicago Center
07:34PM 41.3433 -88.6894 210° Southwest 143 165 6,800 780 Climbing Chicago Center
07:35PM 41.3094 -88.7156 210° Southwest 141 162 7,600 540 Climbing Chicago Center
07:37PM 41.2756 -88.7408 209° Southwest 140 161 8,000 180 Climbing Chicago Center
07:38PM 41.2386 -88.7694 210° Southwest 149 171 8,000  Level Chicago Center
07:39PM 41.1994 -88.8008 211° Southwest 161 185 8,000  Level Chicago Center
07:40PM 41.1592 -88.8303 209° Southwest 164 189 8,000  Level Chicago Center
07:41PM 41.1125 -88.8664 210° Southwest 164 189 8,000  Level Chicago Center
07:42PM 41.0725 -88.8964 209° Southwest 165 190 8,000  Level Chicago Center
07:43PM 41.0322 -88.9261 209° Southwest 166 191 8,000  Level Chicago Center
07:44PM 40.9939 -88.9553 210° Southwest 164 189 8,000  Level Chicago Center
07:45PM 40.9539 -88.9867 211° Southwest 165 190 8,000  Level Chicago Center
07:46PM 40.9136 -89.0169 210° Southwest 165 190 8,000 -60 Level Chicago Center
07:47PM 40.8658 -89.0528 210° Southwest 165 190 7,900 -60 Descending Chicago Center
07:48PM 40.8256 -89.0828 209° Southwest 166 191 7,900  Level Chicago Center
07:49PM 40.7858 -89.1131 210° Southwest 164 189 7,900  Level Chicago Center
07:50PM 40.7450 -89.1431 209° Southwest 167 192 7,900  Level Chicago Center
07:51PM 40.7047 -89.1739 210° Southwest 167 192 7,900  Level Chicago Center
07:52PM 40.6631 -89.2031 208° Southwest 168 193 7,900  Level Chicago Center
07:53PM 40.6236 -89.2342 211° Southwest 166 191 7,900  Level Chicago Center
07:54PM 40.5747 -89.2694 209° Southwest 166 191 7,900  Level Chicago Center
07:55PM 40.5350 -89.3003 211° Southwest 166 191 7,900  Level Chicago Center
07:56PM 40.4947 -89.3306 210° Southwest 166 191 7,900  Level Chicago Center
07:57PM 40.4536 -89.3608 209° Southwest 168 193 7,900  Level Chicago Center
07:58PM 40.4122 -89.3897 208° Southwest 168 193 7,900  Level Chicago Center
07:59PM 40.3717 -89.4208 210° Southwest 169 194 7,900 60 Level Chicago Center
08:00PM 40.3461 -89.4397 209° Southwest 169 194 8,000 60 Climbing Kansas City Center
08:01PM 40.3047 -89.4703 209° Southwest 170 196 8,000  Level Kansas City Center
08:02PM 40.2644 -89.5014 211° Southwest 169 194 8,000 -60 Level Kansas City Center
08:03PM 40.2233 -89.5306 208° Southwest 168 193 7,900 -60 Descending Kansas City Center
08:04PM 40.1747 -89.5667 210° Southwest 167 192 7,900  Level Kansas City Center
08:05PM 40.1339 -89.5978 210° Southwest 168 193 7,900  Level Kansas City Center
08:06PM 40.0925 -89.6275 209° Southwest 169 194 7,900  Level Kansas City Center
08:07PM 40.0519 -89.6567 209° Southwest 167 192 7,900  Level Kansas City Center
08:08PM 40.0111 -89.6869 210° Southwest 167 192 7,900  Level Kansas City Center
08:09PM 39.9694 -89.7167 209° Southwest 170 196 7,900  Level Kansas City Center
08:10PM 39.9292 -89.7464 210° Southwest 167 192 7,900  Level Kansas City Center
08:11PM 39.8886 -89.7747 208° Southwest 168 193 7,900  Level Kansas City Center
08:12PM 39.8475 -89.8067 211° Southwest 168 193 7,900  Level Kansas City Center
08:13PM 39.8053 -89.8367 209° Southwest 171 197 7,900  Level Kansas City Center
08:14PM 39.7642 -89.8669 210° Southwest 170 196 7,900  Level Kansas City Center
08:15PM 39.7158 -89.9011 209° Southwest 169 194 7,900  Level Kansas City Center
08:16PM 39.6742 -89.9319 210° Southwest 171 197 7,900 -60 Level Kansas City Center
08:17PM 39.6325 -89.9625 209° Southwest 172 198 7,800 -300 Descending Kansas City Center
08:18PM 39.5889 -89.9942 209° Southwest 177 204 7,300 -540 Descending Kansas City Center
08:19PM 39.5439 -90.0264 209° Southwest 183 211 6,800 -660 Descending Kansas City Center
08:20PM 39.4983 -90.0586 209° Southwest 184 212 6,000 -840 Descending Kansas City Center
08:21PM 39.4528 -90.0897 208° Southwest 186 214 5,200 -840 Descending Kansas City Center
08:22PM 39.4006 -90.1086 196° South 192 221 4,400 -600 Descending Kansas City Center
08:23PM 39.3506 -90.1278 197° South 189 217 4,000 -240 Descending Kansas City Center
08:24PM 39.2944 -90.1508 198° South 182 209 4,000  Level Kansas City Center
08:25PM 39.2492 -90.1686 197° South 176 203 4,000  Level Kansas City Center
08:26PM 39.2031 -90.1853 196° South 173 199 4,000  Level Kansas City Center
08:27PM 39.1572 -90.2033 197° South 173 199 4,000  Level Kansas City Center
08:28PM 39.1111 -90.2208 196° South 173 199 4,000  Level Kansas City Center
08:29PM 39.0650 -90.2383 196° South 173 199 4,000  Level Kansas City Center
08:30PM 39.0194 -90.2572 198° South 173 199 4,000  Level Kansas City Center
08:31PM 38.9744 -90.2758 198° South 171 197 4,000  Level Kansas City Center
08:32PM 38.9283 -90.2931 196° South 172 198 4,000  Level Kansas City Center
08:34PM 38.8722 -90.3144 197° South 173 199 4,000  Level Kansas City Center
08:35PM 38.8308 -90.3306 197° South 167 192 4,000  Level Kansas City Center
08:36PM 38.7939 -90.3453 197° South 153 176 4,000  Level Kansas City Center
08:37PM 38.7628 -90.3692 211° Southwest 150 173 4,000  Level Kansas City Center
08:38PM 38.7389 -90.4019 227° Southwest 153 176 4,000 -180 Level Kansas City Center
08:39PM 38.6919 -90.4044 182° South 150 173 3,700 -540 Descending Kansas City Center
08:40PM 38.6797 -90.4533 252° West 160 184 3,000 -660 Descending Kansas City Center
08:41PM 38.6806 -90.5128 271° West 165 190 2,400 -660 Descending Kansas City Center
08:42PM 38.6719 -90.5736 260° West 171 197 1,700 -840 Descending Kansas City Center
08:43PM 38.6625 -90.6322 258° West 171 197 700 -600 Descending Kansas City Center
08:44PM 38.6539 -90.6817 257° West 167 192 500 -240 Descending Kansas City Center